createdAt,value
2022-08-07T00:00:24.580Z,75321.13
2022-08-07T00:02:37.482Z,75327.06
2022-08-07T00:03:52.226Z,75338.91
2022-08-07T00:05:28.789Z,75354.72
2022-08-07T00:07:05.190Z,75350.78
2022-08-07T00:08:45.975Z,75364.63
2022-08-07T00:10:25.882Z,75382.41
2022-08-07T00:12:00.755Z,75396.25
2022-08-07T00:13:34.438Z,75386.38
2022-08-07T00:15:13.637Z,75398.22
2022-08-07T00:16:48.507Z,75398.22
2022-08-07T00:18:24.432Z,75398.22
2022-08-07T00:20:02.917Z,75400.19
2022-08-07T00:21:56.041Z,75414.03
2022-08-07T00:23:31.806Z,75418.00
2022-08-07T00:25:15.710Z,75418.00
2022-08-07T00:27:06.498Z,75425.91
2022-08-07T00:28:45.728Z,75441.72
2022-08-07T00:30:29.888Z,75449.63
2022-08-07T00:32:04.025Z,75447.66
2022-08-07T00:33:39.759Z,75453.56
2022-08-07T00:35:14.228Z,75463.47
2022-08-07T00:36:53.114Z,75453.56
2022-08-07T00:38:31.682Z,75453.56
2022-08-07T00:40:07.595Z,75459.50
2022-08-07T00:42:02.079Z,75457.53
2022-08-07T00:44:00.229Z,75461.47
2022-08-07T00:45:32.572Z,75457.53
2022-08-07T00:47:16.024Z,75457.53
2022-08-07T00:49:03.721Z,75461.47
2022-08-07T00:50:46.641Z,75445.66
2022-08-07T00:52:25.324Z,75441.72
2022-08-07T00:53:59.984Z,75443.69
2022-08-07T00:56:03.180Z,75441.72
2022-08-07T00:57:27.793Z,75431.84
2022-08-07T00:59:08.682Z,75423.94
2022-08-07T01:00:53.874Z,75412.06
2022-08-07T01:02:29.679Z,75410.09
2022-08-07T01:04:07.510Z,75404.16
2022-08-07T01:05:41.741Z,75394.28
2022-08-07T01:07:24.846Z,75394.28
2022-08-07T01:09:01.645Z,75392.28
2022-08-07T01:10:39.851Z,75334.97
2022-08-07T01:12:29.648Z,75273.69
2022-08-07T01:14:05.293Z,75204.50
2022-08-07T01:16:04.992Z,75141.25
2022-08-07T01:17:33.102Z,75097.75
2022-08-07T01:19:18.074Z,75079.97
2022-08-07T01:21:03.136Z,75010.78
2022-08-07T01:22:54.127Z,74967.31
2022-08-07T01:24:32.429Z,74908.00
2022-08-07T01:26:08.224Z,74911.97
2022-08-07T01:27:51.416Z,74935.69
2022-08-07T01:29:31.222Z,74935.69
2022-08-07T01:31:09.925Z,74876.38
2022-08-07T01:32:50.040Z,74828.94
2022-08-07T01:34:30.604Z,74773.59
2022-08-07T01:36:10.013Z,74710.34
2022-08-07T01:37:48.490Z,74722.22
2022-08-07T01:39:23.210Z,74696.53
2022-08-07T01:41:12.296Z,74658.97
2022-08-07T01:43:08.521Z,74621.41
2022-08-07T01:44:42.363Z,74591.78
2022-08-07T01:46:19.802Z,74577.94
2022-08-07T01:48:19.745Z,74518.66
2022-08-07T01:49:49.579Z,74473.19
2022-08-07T01:52:02.099Z,74512.72
2022-08-07T01:54:11.880Z,74406.00
2022-08-07T01:55:24.212Z,74406.00
2022-08-07T01:57:24.838Z,74411.91
2022-08-07T01:59:06.995Z,74370.41
2022-08-07T02:00:48.880Z,74354.59
2022-08-07T02:02:32.597Z,74275.56
2022-08-07T02:04:30.327Z,74249.88
2022-08-07T02:06:30.669Z,74303.22
2022-08-07T02:08:10.149Z,74265.69
2022-08-07T02:09:53.074Z,74232.06
2022-08-07T02:12:02.786Z,74200.47
2022-08-07T02:13:57.768Z,74204.41
2022-08-07T02:15:27.912Z,74160.94
2022-08-07T02:17:03.106Z,74115.47
2022-08-07T02:18:47.245Z,74172.78
2022-08-07T02:20:23.972Z,74196.50
2022-08-07T02:22:02.741Z,74164.88
2022-08-07T02:23:38.524Z,74119.44
2022-08-07T02:25:17.418Z,74091.78
2022-08-07T02:27:02.619Z,74062.13
2022-08-07T02:28:39.645Z,74048.28
2022-08-07T02:30:15.810Z,74048.28
2022-08-07T02:31:50.691Z,74046.31
2022-08-07T02:33:41.844Z,73985.06
2022-08-07T02:36:28.805Z,73935.66
2022-08-07T02:37:16.704Z,73994.94
2022-08-07T02:38:56.711Z,73967.28
2022-08-07T02:40:35.280Z,73977.16
2022-08-07T02:42:10.042Z,73927.75
2022-08-07T02:43:49.644Z,73892.19
2022-08-07T02:45:58.980Z,73872.41
2022-08-07T02:47:23.653Z,73832.91
2022-08-07T02:49:06.031Z,73878.34
2022-08-07T02:50:46.754Z,73872.41
2022-08-07T02:52:30.931Z,73949.50
2022-08-07T02:54:09.610Z,73860.56
2022-08-07T02:56:04.318Z,73904.03
2022-08-07T02:57:40.822Z,73860.56
2022-08-07T02:59:23.904Z,73939.59
2022-08-07T03:01:04.631Z,73793.38
2022-08-07T03:02:54.542Z,73904.03
2022-08-07T03:04:30.534Z,73878.34
2022-08-07T03:06:07.649Z,73868.47
2022-08-07T03:07:58.968Z,73848.72
2022-08-07T03:09:44.721Z,73876.38
2022-08-07T03:11:25.277Z,73896.13
2022-08-07T03:13:03.239Z,73848.72
2022-08-07T03:14:38.669Z,73850.69
2022-08-07T03:16:15.323Z,73745.94
2022-08-07T03:17:53.414Z,73726.19
2022-08-07T03:19:36.864Z,73690.63
2022-08-07T03:21:14.254Z,73583.94
2022-08-07T03:22:53.843Z,73603.69
2022-08-07T03:24:28.318Z,73595.78
2022-08-07T03:26:07.444Z,73560.22
2022-08-07T03:28:09.731Z,73583.94
2022-08-07T03:29:52.264Z,73651.09
2022-08-07T03:31:43.070Z,73593.81
2022-08-07T03:33:21.046Z,73672.84
2022-08-07T03:35:16.801Z,73805.22
2022-08-07T03:36:52.936Z,73742.00
2022-08-07T03:38:29.913Z,73659.00
2022-08-07T03:40:15.353Z,73738.06
2022-08-07T03:41:50.906Z,73649.13
2022-08-07T03:43:32.282Z,73686.69
2022-08-07T03:45:08.288Z,73678.78
2022-08-07T03:47:13.064Z,73627.41
2022-08-07T03:48:45.409Z,73631.34
2022-08-07T03:50:38.736Z,73613.56
2022-08-07T03:52:22.307Z,73745.94
2022-08-07T03:54:33.079Z,73613.56
2022-08-07T03:55:58.208Z,73637.28
2022-08-07T03:58:08.812Z,73453.53
2022-08-07T03:59:46.633Z,73435.75
2022-08-07T04:01:37.079Z,73321.13
2022-08-07T04:03:10.799Z,73323.13
2022-08-07T04:04:48.072Z,73275.69
2022-08-07T04:06:37.349Z,73261.88
2022-08-07T04:08:16.054Z,73236.19
2022-08-07T04:09:56.991Z,73271.75
2022-08-07T04:12:24.032Z,73307.31
2022-08-07T04:14:10.208Z,73257.91
2022-08-07T04:15:31.406Z,73176.91
2022-08-07T04:17:05.599Z,73182.84
2022-08-07T04:18:59.821Z,73178.88
2022-08-07T04:20:38.941Z,73145.28
2022-08-07T04:22:29.677Z,73184.81
2022-08-07T04:24:11.926Z,73192.72
2022-08-07T04:26:07.233Z,73240.13
2022-08-07T04:27:44.235Z,73220.38
2022-08-07T04:29:24.705Z,73226.31
2022-08-07T04:31:03.852Z,73248.03
2022-08-07T04:32:44.820Z,73133.44
2022-08-07T04:34:32.929Z,73093.94
2022-08-07T04:36:09.587Z,73058.38
2022-08-07T04:38:03.082Z,73030.72
2022-08-07T04:39:39.257Z,73165.06
2022-08-07T04:41:24.944Z,73123.56
2022-08-07T04:43:03.601Z,73113.69
2022-08-07T04:44:54.493Z,73084.06
2022-08-07T04:47:05.042Z,73074.19
2022-08-07T04:48:46.876Z,73038.63
2022-08-07T04:50:52.910Z,72987.25
2022-08-07T04:52:33.527Z,72983.28
2022-08-07T04:54:29.932Z,72868.72
2022-08-07T04:58:10.344Z,72876.63
2022-08-07T04:58:33.670Z,72843.03
2022-08-07T05:00:13.148Z,72894.41
2022-08-07T05:02:03.110Z,72884.50
2022-08-07T05:04:06.585Z,72843.03
2022-08-07T05:05:57.427Z,72878.59
2022-08-07T05:07:37.201Z,72888.47
2022-08-07T05:09:49.327Z,72837.09
2022-08-07T05:11:57.437Z,72892.41
2022-08-07T05:14:53.338Z,72829.19
2022-08-07T05:15:37.011Z,72860.81
2022-08-07T05:17:12.865Z,73005.03
2022-08-07T05:18:54.135Z,72862.78
2022-08-07T05:20:50.250Z,72884.50
2022-08-07T05:22:27.726Z,72929.94
2022-08-07T05:24:07.386Z,72924.03
2022-08-07T05:26:10.477Z,72967.50
2022-08-07T05:28:16.072Z,72868.72
2022-08-07T05:29:38.994Z,72841.06
2022-08-07T05:31:37.922Z,72927.97
2022-08-07T05:33:20.827Z,72929.94
2022-08-07T05:34:57.329Z,72926.00
2022-08-07T05:36:35.228Z,72953.66
2022-08-07T05:38:58.095Z,72916.13
2022-08-07T05:40:19.070Z,72985.28
2022-08-07T05:42:01.468Z,73052.44
2022-08-07T05:43:43.401Z,72957.63
2022-08-07T05:45:46.756Z,72908.22
2022-08-07T05:47:38.354Z,72848.97
2022-08-07T05:49:20.914Z,72951.69
2022-08-07T05:51:01.831Z,72864.75
2022-08-07T05:52:38.807Z,72825.25
2022-08-07T05:54:44.126Z,72880.56
2022-08-07T05:56:09.177Z,72866.72
2022-08-07T05:57:53.449Z,72927.97
2022-08-07T05:59:29.395Z,72825.25
2022-08-07T06:01:16.357Z,72864.75
2022-08-07T06:02:56.309Z,72894.41
2022-08-07T06:04:33.448Z,72987.25
2022-08-07T06:06:07.428Z,72983.28
2022-08-07T06:08:13.605Z,72908.22
2022-08-07T06:10:04.053Z,72880.56
2022-08-07T06:11:32.297Z,72890.44
2022-08-07T06:13:06.246Z,72902.28
2022-08-07T06:14:49.556Z,72841.06
2022-08-07T06:16:29.315Z,72914.16
2022-08-07T06:18:04.264Z,72989.22
2022-08-07T06:19:47.886Z,72967.50
2022-08-07T06:22:14.942Z,73038.63
2022-08-07T06:24:37.615Z,72993.19
2022-08-07T06:25:18.934Z,72947.72
2022-08-07T06:26:52.257Z,73016.88
2022-08-07T06:28:27.427Z,72971.44
2022-08-07T06:30:03.013Z,72997.13
2022-08-07T06:31:47.345Z,73086.03
2022-08-07T06:33:25.339Z,73036.63
2022-08-07T06:35:01.642Z,73046.50
2022-08-07T06:36:35.706Z,73030.72
2022-08-07T06:38:20.462Z,72987.25
2022-08-07T06:40:17.714Z,73107.75
2022-08-07T06:42:02.200Z,73143.31
2022-08-07T06:44:06.830Z,73192.72
2022-08-07T06:45:45.000Z,73208.53
2022-08-07T06:47:19.518Z,73188.75
2022-08-07T06:48:56.115Z,73200.63
2022-08-07T06:50:36.077Z,73244.09
2022-08-07T06:52:12.369Z,73273.72
2022-08-07T06:55:27.295Z,73331.03
2022-08-07T06:56:00.033Z,73327.06
2022-08-07T06:57:43.659Z,73313.25
2022-08-07T07:00:14.999Z,73309.28
2022-08-07T07:01:24.959Z,73356.69
2022-08-07T07:03:10.704Z,73382.38
2022-08-07T07:04:55.207Z,73410.06
2022-08-07T07:06:28.773Z,73406.09
2022-08-07T07:08:06.905Z,73374.47
2022-08-07T07:09:47.665Z,73376.47
2022-08-07T07:12:07.607Z,73469.31
2022-08-07T07:13:43.537Z,73477.22
2022-08-07T07:15:23.956Z,73451.53
2022-08-07T07:17:04.229Z,73455.50
2022-08-07T07:18:48.635Z,73358.69
2022-08-07T07:20:28.252Z,73329.03
2022-08-07T07:22:04.731Z,73374.47
2022-08-07T07:24:10.288Z,73378.44
2022-08-07T07:26:32.564Z,73449.56
2022-08-07T07:27:58.441Z,73429.81
2022-08-07T07:29:56.317Z,73398.19
2022-08-07T07:31:44.631Z,73449.56
2022-08-07T07:33:20.775Z,73536.50
2022-08-07T07:35:00.099Z,73441.66
2022-08-07T07:36:40.505Z,73451.53
2022-08-07T07:38:15.497Z,73433.75
2022-08-07T07:39:54.821Z,73429.81
2022-08-07T07:41:50.377Z,73431.78
2022-08-07T07:43:27.425Z,73459.44
2022-08-07T07:46:49.994Z,73423.88
2022-08-07T07:47:23.700Z,73467.34
2022-08-07T07:48:59.893Z,73441.66
2022-08-07T07:50:39.173Z,73354.72
2022-08-07T07:52:13.896Z,73346.81
2022-08-07T07:53:51.661Z,73331.03
2022-08-07T07:55:27.840Z,73269.78
2022-08-07T07:57:11.802Z,73287.56
2022-08-07T07:58:46.392Z,73398.19
2022-08-07T08:00:29.004Z,73469.31
2022-08-07T08:02:10.475Z,73451.53
2022-08-07T08:04:09.487Z,73443.63
2022-08-07T08:05:50.520Z,73421.91
2022-08-07T08:07:35.393Z,73402.16
2022-08-07T08:09:15.972Z,73386.34
2022-08-07T08:10:49.623Z,73398.19
2022-08-07T08:12:52.071Z,73386.34
2022-08-07T08:14:26.355Z,73348.81
2022-08-07T08:16:02.513Z,73441.66
2022-08-07T08:17:57.334Z,73429.81
2022-08-07T08:20:18.750Z,73508.84
2022-08-07T08:22:02.659Z,73512.78
2022-08-07T08:23:56.537Z,73415.97
2022-08-07T08:25:51.671Z,73463.41
2022-08-07T08:27:33.929Z,73483.16
2022-08-07T08:29:11.990Z,73461.41
2022-08-07T08:30:51.417Z,73449.56
2022-08-07T08:32:38.315Z,73481.19
2022-08-07T08:34:26.715Z,73532.56
2022-08-07T08:36:01.292Z,73493.03
2022-08-07T08:38:00.993Z,73528.59
2022-08-07T08:39:39.896Z,73493.03
2022-08-07T08:41:31.590Z,73475.25
2022-08-07T08:43:42.325Z,73467.34
2022-08-07T08:45:41.818Z,73461.41
2022-08-07T08:47:40.281Z,73429.81
2022-08-07T08:49:46.365Z,73421.91
2022-08-07T08:51:49.230Z,73473.28
2022-08-07T08:53:34.129Z,73455.50
2022-08-07T08:55:21.013Z,73447.59
2022-08-07T08:57:12.290Z,73475.25
2022-08-07T08:59:13.617Z,73483.16
2022-08-07T09:00:56.446Z,73417.94
2022-08-07T09:02:40.445Z,73445.63
2022-08-07T09:04:34.940Z,73449.56
2022-08-07T09:06:28.065Z,73447.59
2022-08-07T09:08:06.418Z,73384.38
2022-08-07T09:09:57.247Z,73415.97
2022-08-07T09:11:50.638Z,73356.69
2022-08-07T09:13:38.538Z,73439.69
2022-08-07T09:16:22.087Z,73423.88
2022-08-07T09:17:22.294Z,73485.13
2022-08-07T09:18:58.807Z,73455.50
2022-08-07T09:20:41.227Z,73453.53
2022-08-07T09:22:36.907Z,73445.63
2022-08-07T09:24:52.494Z,73382.38
2022-08-07T09:26:26.610Z,73382.38
2022-08-07T09:28:04.339Z,73419.94
2022-08-07T09:30:03.930Z,73380.41
2022-08-07T09:31:38.671Z,73358.69
2022-08-07T09:33:53.087Z,73350.78
2022-08-07T09:36:03.131Z,73396.22
2022-08-07T09:37:20.889Z,73323.13
2022-08-07T09:39:54.076Z,73293.47
2022-08-07T09:42:03.210Z,73303.34
2022-08-07T09:44:06.585Z,73364.59
2022-08-07T09:47:52.778Z,73366.59
2022-08-07T09:48:01.733Z,73390.28
2022-08-07T09:50:00.573Z,73378.44
2022-08-07T09:52:09.812Z,73417.94
2022-08-07T09:53:49.011Z,73404.13
2022-08-07T09:56:04.181Z,73390.28
2022-08-07T09:57:46.530Z,73305.34
2022-08-07T09:59:26.930Z,73273.72
2022-08-07T10:01:52.294Z,73232.22
2022-08-07T10:04:06.048Z,73220.38
2022-08-07T10:05:59.085Z,73228.28
2022-08-07T10:07:39.912Z,73362.63
2022-08-07T10:10:00.877Z,73358.69
2022-08-07T10:12:04.202Z,73384.38
2022-08-07T10:14:07.220Z,73350.78
2022-08-07T10:15:56.057Z,73327.06
2022-08-07T10:18:00.897Z,73358.69
2022-08-07T10:19:49.633Z,73360.66
2022-08-07T10:22:12.515Z,73362.63
2022-08-07T10:24:06.964Z,73350.78
2022-08-07T10:25:43.217Z,73368.56
2022-08-07T10:27:47.000Z,73390.28
2022-08-07T10:29:38.427Z,73342.88
2022-08-07T10:31:22.763Z,73370.53
2022-08-07T10:34:05.833Z,73390.28
2022-08-07T10:35:55.783Z,73356.69
2022-08-07T10:37:59.853Z,73311.25
2022-08-07T10:39:41.172Z,73307.31
2022-08-07T10:41:46.574Z,73299.41
2022-08-07T10:43:16.125Z,73291.50
2022-08-07T10:45:57.131Z,73259.88
2022-08-07T10:47:53.241Z,73222.34
2022-08-07T10:49:49.047Z,73147.28
2022-08-07T10:51:39.407Z,73113.69
2022-08-07T10:53:46.127Z,73196.66
2022-08-07T10:55:37.281Z,73218.41
2022-08-07T10:57:34.835Z,73307.31
2022-08-07T10:59:22.089Z,73358.69
2022-08-07T11:01:11.394Z,73372.50
2022-08-07T11:03:04.553Z,73352.75
2022-08-07T11:05:10.456Z,73360.66
2022-08-07T11:06:52.930Z,73386.34
2022-08-07T11:08:41.658Z,73388.31
2022-08-07T11:10:27.502Z,73380.41
2022-08-07T11:12:05.001Z,73402.16
2022-08-07T11:14:45.310Z,73427.84
2022-08-07T11:15:54.474Z,73469.31
2022-08-07T11:17:43.545Z,73453.53
2022-08-07T11:19:27.430Z,73417.94
2022-08-07T11:21:01.051Z,73447.59
2022-08-07T11:22:46.230Z,73435.75
2022-08-07T11:24:25.106Z,73384.38
2022-08-07T11:26:05.994Z,73370.53
2022-08-07T11:28:02.513Z,73390.28
2022-08-07T11:30:17.575Z,73350.78
2022-08-07T11:31:54.499Z,73402.16
2022-08-07T11:33:58.442Z,73415.97
2022-08-07T11:35:59.626Z,73441.66
2022-08-07T11:37:58.327Z,73429.81
2022-08-07T11:40:00.935Z,73427.84
2022-08-07T11:42:02.143Z,73455.50
2022-08-07T11:44:11.501Z,73451.53
2022-08-07T11:45:53.552Z,73463.41
2022-08-07T11:47:58.806Z,73497.00
2022-08-07T11:50:30.186Z,73520.69
2022-08-07T11:51:50.018Z,73556.25
2022-08-07T11:53:26.449Z,73528.59
2022-08-07T11:56:25.604Z,73556.25
2022-08-07T11:57:59.599Z,73595.78
2022-08-07T12:00:11.499Z,73603.69
2022-08-07T12:01:59.512Z,73621.47
2022-08-07T12:03:45.063Z,73615.53
2022-08-07T12:05:28.506Z,73647.16
2022-08-07T12:07:27.636Z,73666.91
2022-08-07T12:09:31.730Z,73706.44
2022-08-07T12:11:21.056Z,73698.53
2022-08-07T12:13:00.387Z,73722.25
2022-08-07T12:14:39.638Z,73718.28
2022-08-07T12:16:29.943Z,73742.00
2022-08-07T12:18:11.256Z,73745.94
2022-08-07T12:20:02.817Z,73734.09
2022-08-07T12:22:36.099Z,73714.34
2022-08-07T12:24:06.403Z,73716.31
2022-08-07T12:26:22.869Z,73698.53
2022-08-07T12:28:08.555Z,73678.78
2022-08-07T12:30:00.332Z,73704.47
2022-08-07T12:31:53.189Z,73728.16
2022-08-07T12:34:00.650Z,73749.91
2022-08-07T12:35:36.354Z,73740.03
2022-08-07T12:37:17.035Z,73769.66
2022-08-07T12:38:58.147Z,73777.56
2022-08-07T12:40:50.580Z,73783.50
2022-08-07T12:42:27.724Z,73799.31
2022-08-07T12:44:09.313Z,73763.75
2022-08-07T12:45:53.304Z,73751.88
2022-08-07T12:47:33.880Z,73716.31
2022-08-07T12:49:25.837Z,73730.16
2022-08-07T12:51:17.640Z,73740.03
2022-08-07T12:52:59.971Z,73718.28
2022-08-07T12:54:43.700Z,73680.75
2022-08-07T12:56:36.851Z,73706.44
2022-08-07T12:58:12.995Z,73676.78
2022-08-07T12:59:54.597Z,73645.19
2022-08-07T13:01:32.412Z,73670.88
2022-08-07T13:03:23.087Z,73641.22
2022-08-07T13:05:14.678Z,73670.88
2022-08-07T13:07:01.316Z,73690.63
2022-08-07T13:08:39.906Z,73686.69
2022-08-07T13:10:39.346Z,73694.59
2022-08-07T13:12:33.971Z,73710.38
2022-08-07T13:14:29.651Z,73718.28
2022-08-07T13:16:11.566Z,73698.53
2022-08-07T13:17:47.062Z,73700.50
2022-08-07T13:19:50.932Z,73704.47
2022-08-07T13:21:37.328Z,73698.53
2022-08-07T13:24:03.747Z,73694.59
2022-08-07T13:25:50.699Z,73694.59
2022-08-07T13:27:33.278Z,73710.38
2022-08-07T13:29:27.707Z,73726.19
2022-08-07T13:31:13.825Z,73730.16
2022-08-07T13:33:02.045Z,73726.19
2022-08-07T13:34:48.462Z,73702.47
2022-08-07T13:36:26.765Z,73692.59
2022-08-07T13:38:05.096Z,73702.47
2022-08-07T13:40:36.217Z,73696.56
2022-08-07T13:41:51.108Z,73698.53
2022-08-07T13:43:29.318Z,73680.75
2022-08-07T13:46:06.452Z,73674.81
2022-08-07T13:47:09.588Z,73653.09
2022-08-07T13:48:51.967Z,73655.06
2022-08-07T13:50:45.023Z,73670.88
2022-08-07T13:52:32.436Z,73666.91
2022-08-07T13:54:16.628Z,73674.81
2022-08-07T13:55:57.288Z,73670.88
2022-08-07T13:57:37.627Z,73674.81
2022-08-07T13:59:13.846Z,73664.94
2022-08-07T14:00:54.101Z,73655.06
2022-08-07T14:02:29.658Z,73676.78
2022-08-07T14:04:14.863Z,73704.47
2022-08-07T14:05:55.827Z,73702.47
2022-08-07T14:07:31.915Z,73718.28
2022-08-07T14:09:17.127Z,73747.94
2022-08-07T14:11:17.405Z,73769.66
2022-08-07T14:12:58.282Z,73777.56
2022-08-07T14:14:45.839Z,73793.38
2022-08-07T14:16:31.127Z,73809.19
2022-08-07T14:18:06.539Z,73819.06
2022-08-07T14:20:44.575Z,73826.97
2022-08-07T14:22:12.527Z,73838.81
2022-08-07T14:24:07.761Z,73858.59
2022-08-07T14:25:46.044Z,73856.63
2022-08-07T14:28:11.061Z,73858.59
2022-08-07T14:30:08.194Z,73860.56
2022-08-07T14:31:42.773Z,73872.41
2022-08-07T14:33:22.362Z,73872.41
2022-08-07T14:35:03.953Z,73880.31
2022-08-07T14:36:37.704Z,73894.16
2022-08-07T14:38:26.109Z,73896.13
2022-08-07T14:40:16.470Z,73909.97
2022-08-07T14:42:18.715Z,73925.78
2022-08-07T14:44:11.597Z,73931.69
2022-08-07T14:46:17.494Z,73931.69
2022-08-07T14:47:53.019Z,73941.59
2022-08-07T14:49:57.133Z,73943.56
2022-08-07T14:52:04.500Z,73955.41
2022-08-07T14:54:05.468Z,73957.41
2022-08-07T14:55:17.860Z,73967.28
2022-08-07T14:56:52.806Z,73971.22
2022-08-07T14:58:30.088Z,73973.19
2022-08-07T15:00:06.860Z,73981.09
2022-08-07T15:01:50.989Z,73991.00
2022-08-07T15:03:52.284Z,73991.00
2022-08-07T15:05:23.833Z,73994.94
2022-08-07T15:06:57.859Z,74002.84
2022-08-07T15:08:50.034Z,74004.81
2022-08-07T15:10:29.892Z,74016.69
2022-08-07T15:12:11.064Z,74018.66
2022-08-07T15:14:10.853Z,74030.50
2022-08-07T15:15:52.664Z,74038.41
2022-08-07T15:17:55.402Z,74034.47
2022-08-07T15:20:30.653Z,74036.44
2022-08-07T15:21:43.774Z,74042.38
2022-08-07T15:25:12.748Z,74054.22
2022-08-07T15:25:36.801Z,74054.22
2022-08-07T15:27:15.826Z,74062.13
2022-08-07T15:33:01.483Z,74075.97
2022-08-07T15:34:50.246Z,74091.78
2022-08-07T15:37:04.200Z,74097.69
2022-08-07T15:40:34.798Z,74105.59
2022-08-07T15:42:43.317Z,74109.56
2022-08-07T15:44:24.173Z,74117.47
2022-08-07T15:50:03.987Z,74141.16
2022-08-07T15:53:52.165Z,74156.97
2022-08-07T15:55:53.737Z,74156.97
2022-08-07T15:57:39.733Z,74176.75
2022-08-07T15:59:39.762Z,74176.75
2022-08-07T16:01:38.558Z,74182.69
2022-08-07T16:03:21.381Z,74192.56
2022-08-07T16:05:20.767Z,74196.50
2022-08-07T16:06:57.909Z,74204.41
2022-08-07T16:08:38.305Z,74218.25
2022-08-07T16:10:15.474Z,74224.19
2022-08-07T16:11:49.378Z,74247.88
2022-08-07T16:13:59.658Z,74275.56
2022-08-07T16:15:55.612Z,74295.31
2022-08-07T16:18:02.004Z,74311.13
2022-08-07T16:19:41.908Z,74313.09
2022-08-07T16:21:57.046Z,74336.81
2022-08-07T16:23:11.837Z,74350.66
2022-08-07T16:25:04.784Z,74350.66
2022-08-07T16:30:10.030Z,74370.41
2022-08-07T16:31:51.956Z,74368.44
2022-08-07T16:34:02.367Z,74366.47
2022-08-07T16:35:52.306Z,74366.47
2022-08-07T16:38:03.004Z,74378.31
2022-08-07T16:39:40.538Z,74392.16
2022-08-07T16:41:41.467Z,74394.13
2022-08-07T16:44:06.453Z,74394.13
2022-08-07T16:46:34.752Z,74382.28
2022-08-07T16:48:05.290Z,74374.38
2022-08-07T16:50:27.447Z,74376.34
2022-08-07T16:52:50.884Z,74366.47
2022-08-07T16:54:34.654Z,74354.59
2022-08-07T16:56:08.974Z,74348.69
2022-08-07T16:58:02.282Z,74350.66
2022-08-07T16:59:46.928Z,74362.50
2022-08-07T17:01:20.887Z,74374.38
2022-08-07T17:02:55.913Z,74394.13
2022-08-07T17:04:50.831Z,74400.06
2022-08-07T17:07:02.857Z,74425.75
2022-08-07T17:09:10.789Z,74437.63
2022-08-07T17:10:55.754Z,74445.50
2022-08-07T17:12:48.222Z,74469.22
2022-08-07T17:14:32.172Z,74481.09
2022-08-07T17:16:24.999Z,74489.00
2022-08-07T17:18:21.348Z,74489.00
2022-08-07T17:20:14.111Z,74502.84
2022-08-07T17:21:59.491Z,74504.81
2022-08-07T17:23:41.083Z,74500.84
2022-08-07T17:25:19.223Z,74498.88
2022-08-07T17:26:59.425Z,74502.84
2022-08-07T17:28:38.514Z,74500.84
2022-08-07T17:30:26.956Z,74506.78
2022-08-07T17:32:31.162Z,74506.78
2022-08-07T17:34:34.879Z,74526.53
2022-08-07T17:36:20.567Z,74540.38
2022-08-07T17:38:32.056Z,74550.25
2022-08-07T17:40:09.035Z,74572.00
2022-08-07T17:42:06.567Z,74583.88
2022-08-07T17:44:03.153Z,74607.59
2022-08-07T17:46:18.388Z,74611.53
2022-08-07T17:48:00.102Z,74621.41
2022-08-07T17:49:44.796Z,74627.34
2022-08-07T17:51:25.078Z,74623.38
2022-08-07T17:54:02.123Z,74623.38
2022-08-07T17:55:54.787Z,74623.38
2022-08-07T17:57:58.909Z,74623.38
2022-08-07T17:59:57.315Z,74623.38
2022-08-07T18:01:39.125Z,74625.38
2022-08-07T18:03:19.268Z,74615.47
2022-08-07T18:05:20.905Z,74627.34
2022-08-07T18:07:20.081Z,74631.28
2022-08-07T18:09:05.816Z,74629.31
2022-08-07T18:12:07.797Z,74617.47
2022-08-07T18:12:40.048Z,74611.53
2022-08-07T18:14:37.602Z,74603.63
2022-08-07T18:16:32.969Z,74591.78
2022-08-07T18:18:45.374Z,74587.81
2022-08-07T18:21:11.870Z,74585.84
2022-08-07T18:22:17.215Z,74583.88
2022-08-07T18:23:57.513Z,74577.94
2022-08-07T18:25:40.679Z,74581.88
2022-08-07T18:27:17.392Z,74579.91
2022-08-07T18:30:07.451Z,74585.84
2022-08-07T18:31:03.620Z,74593.75
2022-08-07T18:32:55.822Z,74605.59
2022-08-07T18:35:00.526Z,74603.63
2022-08-07T18:36:54.843Z,74615.47
2022-08-07T18:38:55.246Z,74617.47
2022-08-07T18:40:42.943Z,74615.47
2022-08-07T18:42:46.543Z,74615.47
2022-08-07T18:45:39.530Z,74623.38
2022-08-07T18:46:47.795Z,74641.19
2022-08-07T18:50:06.024Z,74649.09
2022-08-07T18:50:40.625Z,74664.91
2022-08-07T18:52:41.006Z,74668.84
2022-08-07T18:54:30.677Z,74682.69
2022-08-07T18:56:31.474Z,74684.66
2022-08-07T18:58:17.439Z,74688.63
2022-08-07T19:00:33.342Z,74700.47
2022-08-07T19:02:32.205Z,74712.34
2022-08-07T19:04:09.326Z,74722.22
2022-08-07T19:06:03.844Z,74728.16
2022-08-07T19:07:51.777Z,74732.09
2022-08-07T19:09:55.637Z,74749.88
2022-08-07T19:11:52.084Z,74777.56
2022-08-07T19:14:11.611Z,74797.31
2022-08-07T19:16:43.659Z,74821.03
2022-08-07T19:18:13.731Z,74840.81
2022-08-07T19:20:01.371Z,74858.59
2022-08-07T19:22:05.393Z,74868.47
2022-08-07T19:24:00.311Z,74878.34
2022-08-07T19:26:25.102Z,74880.34
2022-08-07T19:30:55.521Z,74884.28
2022-08-07T19:31:00.692Z,74898.13
2022-08-07T19:32:10.514Z,74894.16
2022-08-07T19:33:39.845Z,74892.19
2022-08-07T19:35:27.075Z,74900.09
2022-08-07T19:37:09.843Z,74894.16
2022-08-07T19:38:53.837Z,74911.97
2022-08-07T19:40:31.074Z,74911.97
2022-08-07T19:42:23.304Z,74913.94
2022-08-07T19:44:00.396Z,74908.00
2022-08-07T19:46:09.414Z,74908.00
2022-08-07T19:47:38.199Z,74904.06
2022-08-07T19:49:58.620Z,74904.06
2022-08-07T19:51:50.544Z,74890.22
2022-08-07T19:54:44.399Z,74886.25
2022-08-07T19:55:13.673Z,74900.09
2022-08-07T19:57:51.360Z,74913.94
2022-08-07T19:58:53.134Z,74923.81
2022-08-07T20:00:29.723Z,74941.59
2022-08-07T20:02:04.827Z,74931.72
2022-08-07T20:03:38.839Z,74937.66
2022-08-07T20:05:21.361Z,74931.72
2022-08-07T20:06:56.225Z,74939.63
2022-08-07T20:08:31.606Z,74937.66
2022-08-07T20:10:34.070Z,74951.50
2022-08-07T20:12:23.230Z,74951.50
2022-08-07T20:13:55.814Z,74949.50
2022-08-07T20:15:33.138Z,74947.53
2022-08-07T20:17:11.668Z,74957.41
2022-08-07T20:18:46.796Z,74971.25
2022-08-07T20:20:22.464Z,74963.34
2022-08-07T20:22:01.404Z,74965.31
2022-08-07T20:23:43.223Z,74957.41
2022-08-07T20:25:25.226Z,74963.34
2022-08-07T20:27:02.852Z,74969.28
2022-08-07T20:28:40.628Z,74983.13
2022-08-07T20:30:14.260Z,74989.03
2022-08-07T20:32:02.132Z,74993.00
2022-08-07T20:33:36.762Z,74994.97
2022-08-07T20:35:17.808Z,75006.84
2022-08-07T20:36:59.092Z,75014.75
2022-08-07T20:38:33.286Z,75030.56
2022-08-07T20:40:32.437Z,75032.53
2022-08-07T20:42:03.504Z,75032.53
2022-08-07T20:43:47.823Z,75038.47
2022-08-07T20:45:33.342Z,75042.41
2022-08-07T20:47:18.743Z,75042.41
2022-08-07T20:49:54.151Z,75046.38
2022-08-07T20:50:56.929Z,75058.22
2022-08-07T20:52:51.335Z,75081.94
2022-08-07T20:54:32.337Z,75097.75
2022-08-07T20:56:10.821Z,75095.78
2022-08-07T20:58:02.888Z,75109.63
2022-08-07T21:00:08.178Z,75101.72
2022-08-07T21:01:45.377Z,75097.75
2022-08-07T21:03:23.302Z,75093.81
2022-08-07T21:05:00.761Z,75093.81
2022-08-07T21:06:42.408Z,75091.84
2022-08-07T21:08:36.414Z,75099.75
2022-08-07T21:10:14.036Z,75097.75
2022-08-07T21:11:50.854Z,75097.75
2022-08-07T21:13:57.919Z,75093.81
2022-08-07T21:15:19.667Z,75097.75
2022-08-07T21:18:02.950Z,75097.75
2022-08-07T21:19:15.622Z,75093.81
2022-08-07T21:21:00.338Z,75101.72
2022-08-07T21:22:45.127Z,75109.63
2022-08-07T21:24:48.037Z,75101.72